sensor_id;sensor_type;location;lat;lon;timestamp;temperature;humidity
17252;DHT22;8742;51.716;8.790;2022-11-15T00:05:19;10.30;99.90
17252;DHT22;8742;51.716;8.790;2022-11-15T00:18:03;10.20;99.90
17252;DHT22;8742;51.716;8.790;2022-11-15T00:20:33;10.10;99.90
17252;DHT22;8742;51.716;8.790;2022-11-15T00:23:00;10.10;99.90
17252;DHT22;8742;51.716;8.790;2022-11-15T00:25:29;10.10;99.90
17252;DHT22;8742;51.716;8.790;2022-11-15T00:27:56;10.10;99.90
17252;DHT22;8742;51.716;8.790;2022-11-15T00:30:23;10.20;99.90
17252;DHT22;8742;51.716;8.790;2022-11-15T00:32:50;10.20;99.90
17252;DHT22;8742;51.716;8.790;2022-11-15T00:35:17;10.30;99.90
17252;DHT22;8742;51.716;8.790;2022-11-15T00:37:46;10.30;99.90
17252;DHT22;8742;51.716;8.790;2022-11-15T00:40:13;10.40;99.90
17252;DHT22;8742;51.716;8.790;2022-11-15T00:42:40;10.40;99.90
17252;DHT22;8742;51.716;8.790;2022-11-15T00:45:09;10.40;99.90
17252;DHT22;8742;51.716;8.790;2022-11-15T00:47:36;10.50;99.90
17252;DHT22;8742;51.716;8.790;2022-11-15T00:50:03;10.50;99.90
17252;DHT22;8742;51.716;8.790;2022-11-15T00:52:30;10.60;99.90
17252;DHT22;8742;51.716;8.790;2022-11-15T00:54:58;10.60;99.90
17252;DHT22;8742;51.716;8.790;2022-11-15T00:57:25;10.70;99.90
17252;DHT22;8742;51.716;8.790;2022-11-15T00:59:52;10.70;99.90
17252;DHT22;8742;51.716;8.790;2022-11-15T01:02:19;10.70;99.90
17252;DHT22;8742;51.716;8.790;2022-11-15T01:04:46;10.60;99.90
17252;DHT22;8742;51.716;8.790;2022-11-15T01:07:13;10.60;99.90
17252;DHT22;8742;51.716;8.790;2022-11-15T01:09:40;10.60;99.90
17252;DHT22;8742;51.716;8.790;2022-11-15T01:12:08;10.60;99.90
17252;DHT22;8742;51.716;8.790;2022-11-15T01:14:35;10.60;99.90
17252;DHT22;8742;51.716;8.790;2022-11-15T01:17:02;10.60;99.90
17252;DHT22;8742;51.716;8.790;2022-11-15T01:19:29;10.70;99.90
17252;DHT22;8742;51.716;8.790;2022-11-15T01:21:56;10.70;99.90
17252;DHT22;8742;51.716;8.790;2022-11-15T01:24:22;10.70;99.90
17252;DHT22;8742;51.716;8.790;2022-11-15T01:26:49;10.70;99.90
17252;DHT22;8742;51.716;8.790;2022-11-15T01:29:17;10.70;99.90
17252;DHT22;8742;51.716;8.790;2022-11-15T01:31:44;10.70;99.90
17252;DHT22;8742;51.716;8.790;2022-11-15T01:34:11;10.70;99.90
17252;DHT22;8742;51.716;8.790;2022-11-15T01:36:38;10.70;99.90
17252;DHT22;8742;51.716;8.790;2022-11-15T01:39:05;10.70;99.90
17252;DHT22;8742;51.716;8.790;2022-11-15T01:41:32;10.60;99.90
17252;DHT22;8742;51.716;8.790;2022-11-15T01:47:02;10.50;99.90
17252;DHT22;8742;51.716;8.790;2022-11-15T01:49:33;10.40;99.90
17252;DHT22;8742;51.716;8.790;2022-11-15T01:52:03;10.30;99.90
17252;DHT22;8742;51.716;8.790;2022-11-15T01:54:31;10.20;99.90
17252;DHT22;8742;51.716;8.790;2022-11-15T01:57:01;10.20;99.90
17252;DHT22;8742;51.716;8.790;2022-11-15T01:59:28;10.10;99.90
17252;DHT22;8742;51.716;8.790;2022-11-15T02:01:55;10.10;99.90
17252;DHT22;8742;51.716;8.790;2022-11-15T02:04:26;10.00;99.90
17252;DHT22;8742;51.716;8.790;2022-11-15T02:06:54;10.00;99.90
17252;DHT22;8742;51.716;8.790;2022-11-15T02:09:21;10.00;99.90
17252;DHT22;8742;51.716;8.790;2022-11-15T02:11:49;10.00;99.90
17252;DHT22;8742;51.716;8.790;2022-11-15T02:14:19;10.00;99.90
17252;DHT22;8742;51.716;8.790;2022-11-15T02:16:54;10.00;99.90
17252;DHT22;8742;51.716;8.790;2022-11-15T02:19:40;10.00;99.90
17252;DHT22;8742;51.716;8.790;2022-11-15T02:22:22;10.00;99.90
17252;DHT22;8742;51.716;8.790;2022-11-15T02:25:16;9.90;99.90
17252;DHT22;8742;51.716;8.790;2022-11-15T02:31:04;9.90;99.90
17252;DHT22;8742;51.716;8.790;2022-11-15T02:33:38;9.90;99.90
17252;DHT22;8742;51.716;8.790;2022-11-15T02:36:11;9.90;99.90
17252;DHT22;8742;51.716;8.790;2022-11-15T02:38:43;9.90;99.90
17252;DHT22;8742;51.716;8.790;2022-11-15T02:41:16;10.00;99.90
17252;DHT22;8742;51.716;8.790;2022-11-15T02:43:47;10.00;99.90
17252;DHT22;8742;51.716;8.790;2022-11-15T02:46:28;10.00;99.90
17252;DHT22;8742;51.716;8.790;2022-11-15T02:49:11;10.00;99.90
17252;DHT22;8742;51.716;8.790;2022-11-15T02:51:40;10.00;99.90
17252;DHT22;8742;51.716;8.790;2022-11-15T02:54:12;10.00;99.90
17252;DHT22;8742;51.716;8.790;2022-11-15T02:56:39;10.00;99.90
17252;DHT22;8742;51.716;8.790;2022-11-15T02:59:18;10.10;99.90
17252;DHT22;8742;51.716;8.790;2022-11-15T03:01:56;10.10;99.90
17252;DHT22;8742;51.716;8.790;2022-11-15T03:04:33;10.10;99.90
17252;DHT22;8742;51.716;8.790;2022-11-15T03:07:07;10.10;99.90
17252;DHT22;8742;51.716;8.790;2022-11-15T03:09:41;10.10;99.90
17252;DHT22;8742;51.716;8.790;2022-11-15T03:12:12;10.10;99.90
17252;DHT22;8742;51.716;8.790;2022-11-15T03:14:47;10.10;99.90
17252;DHT22;8742;51.716;8.790;2022-11-15T03:17:23;10.10;99.90
17252;DHT22;8742;51.716;8.790;2022-11-15T03:19:52;10.10;99.90
17252;DHT22;8742;51.716;8.790;2022-11-15T03:22:22;10.10;99.90
17252;DHT22;8742;51.716;8.790;2022-11-15T03:24:54;10.10;99.90
17252;DHT22;8742;51.716;8.790;2022-11-15T03:27:24;10.20;99.90
17252;DHT22;8742;51.716;8.790;2022-11-15T03:29:55;10.20;99.90
17252;DHT22;8742;51.716;8.790;2022-11-15T03:32:26;10.20;99.90
17252;DHT22;8742;51.716;8.790;2022-11-15T03:34:58;10.20;99.90
17252;DHT22;8742;51.716;8.790;2022-11-15T03:37:30;10.20;99.90
17252;DHT22;8742;51.716;8.790;2022-11-15T03:39:59;10.20;99.90
17252;DHT22;8742;51.716;8.790;2022-11-15T03:42:30;10.20;99.90
17252;DHT22;8742;51.716;8.790;2022-11-15T03:45:01;10.20;99.90
17252;DHT22;8742;51.716;8.790;2022-11-15T03:47:34;10.30;99.90
17252;DHT22;8742;51.716;8.790;2022-11-15T03:50:04;10.40;99.90
17252;DHT22;8742;51.716;8.790;2022-11-15T03:52:34;10.40;99.90
17252;DHT22;8742;51.716;8.790;2022-11-15T03:55:03;10.50;99.90
17252;DHT22;8742;51.716;8.790;2022-11-15T03:57:31;10.50;99.90
17252;DHT22;8742;51.716;8.790;2022-11-15T03:59:58;10.60;99.90
17252;DHT22;8742;51.716;8.790;2022-11-15T04:02:25;10.60;99.90
17252;DHT22;8742;51.716;8.790;2022-11-15T04:04:53;10.70;99.90
17252;DHT22;8742;51.716;8.790;2022-11-15T04:07:20;10.70;99.90
17252;DHT22;8742;51.716;8.790;2022-11-15T04:09:47;10.70;99.90
17252;DHT22;8742;51.716;8.790;2022-11-15T04:12:29;10.70;99.90
17252;DHT22;8742;51.716;8.790;2022-11-15T04:15:03;10.70;99.90
17252;DHT22;8742;51.716;8.790;2022-11-15T04:17:35;10.80;99.90
17252;DHT22;8742;51.716;8.790;2022-11-15T04:20:05;10.80;99.90
17252;DHT22;8742;51.716;8.790;2022-11-15T04:22:52;10.80;99.90
17252;DHT22;8742;51.716;8.790;2022-11-15T04:25:37;10.80;99.90
17252;DHT22;8742;51.716;8.790;2022-11-15T04:28:04;10.80;99.90
17252;DHT22;8742;51.716;8.790;2022-11-15T04:30:31;10.80;99.90
17252;DHT22;8742;51.716;8.790;2022-11-15T04:32:58;10.80;99.90
17252;DHT22;8742;51.716;8.790;2022-11-15T04:35:26;10.80;99.90
17252;DHT22;8742;51.716;8.790;2022-11-15T04:37:53;10.80;99.90
17252;DHT22;8742;51.716;8.790;2022-11-15T04:40:19;10.90;99.90
17252;DHT22;8742;51.716;8.790;2022-11-15T04:42:46;10.90;99.90
17252;DHT22;8742;51.716;8.790;2022-11-15T04:45:13;10.90;99.90
17252;DHT22;8742;51.716;8.790;2022-11-15T04:47:40;11.00;99.90
17252;DHT22;8742;51.716;8.790;2022-11-15T04:50:09;11.00;99.90
17252;DHT22;8742;51.716;8.790;2022-11-15T04:52:39;11.10;99.90
17252;DHT22;8742;51.716;8.790;2022-11-15T04:55:07;11.10;99.90
17252;DHT22;8742;51.716;8.790;2022-11-15T04:57:34;11.10;99.90
17252;DHT22;8742;51.716;8.790;2022-11-15T05:00:01;11.20;99.90
17252;DHT22;8742;51.716;8.790;2022-11-15T05:02:29;11.20;99.90
17252;DHT22;8742;51.716;8.790;2022-11-15T05:05:16;11.20;99.90
17252;DHT22;8742;51.716;8.790;2022-11-15T05:07:43;11.30;99.90
17252;DHT22;8742;51.716;8.790;2022-11-15T05:10:10;11.40;99.90
17252;DHT22;8742;51.716;8.790;2022-11-15T05:12:37;11.50;99.90
17252;DHT22;8742;51.716;8.790;2022-11-15T05:15:05;11.50;99.90
17252;DHT22;8742;51.716;8.790;2022-11-15T05:17:32;11.50;99.90
17252;DHT22;8742;51.716;8.790;2022-11-15T05:19:58;11.50;99.90
17252;DHT22;8742;51.716;8.790;2022-11-15T05:22:26;11.50;99.90
17252;DHT22;8742;51.716;8.790;2022-11-15T05:24:54;11.60;99.90
17252;DHT22;8742;51.716;8.790;2022-11-15T05:27:21;11.50;99.90
17252;DHT22;8742;51.716;8.790;2022-11-15T05:29:48;11.50;99.90
17252;DHT22;8742;51.716;8.790;2022-11-15T05:32:16;11.50;99.90
17252;DHT22;8742;51.716;8.790;2022-11-15T05:34:44;11.50;99.90
17252;DHT22;8742;51.716;8.790;2022-11-15T05:37:12;11.40;99.90
17252;DHT22;8742;51.716;8.790;2022-11-15T05:39:39;11.40;99.90
17252;DHT22;8742;51.716;8.790;2022-11-15T05:42:09;11.40;99.90
17252;DHT22;8742;51.716;8.790;2022-11-15T05:44:38;11.30;99.90
17252;DHT22;8742;51.716;8.790;2022-11-15T05:47:09;11.30;99.90
17252;DHT22;8742;51.716;8.790;2022-11-15T05:49:38;11.20;99.90
17252;DHT22;8742;51.716;8.790;2022-11-15T05:52:08;11.20;99.90
17252;DHT22;8742;51.716;8.790;2022-11-15T05:54:36;11.10;99.90
17252;DHT22;8742;51.716;8.790;2022-11-15T05:57:04;11.10;99.90
17252;DHT22;8742;51.716;8.790;2022-11-15T05:59:32;11.10;99.90
17252;DHT22;8742;51.716;8.790;2022-11-15T06:02:00;11.10;99.90
17252;DHT22;8742;51.716;8.790;2022-11-15T06:04:27;11.10;99.90
17252;DHT22;8742;51.716;8.790;2022-11-15T06:06:54;11.10;99.90
17252;DHT22;8742;51.716;8.790;2022-11-15T06:09:20;11.10;99.90
17252;DHT22;8742;51.716;8.790;2022-11-15T06:11:48;11.10;99.90
17252;DHT22;8742;51.716;8.790;2022-11-15T06:14:14;11.10;99.90
17252;DHT22;8742;51.716;8.790;2022-11-15T06:16:43;11.10;99.90
17252;DHT22;8742;51.716;8.790;2022-11-15T06:19:10;11.10;99.90
17252;DHT22;8742;51.716;8.790;2022-11-15T06:21:37;11.10;99.90
17252;DHT22;8742;51.716;8.790;2022-11-15T06:24:05;11.00;99.90
17252;DHT22;8742;51.716;8.790;2022-11-15T06:26:32;11.00;99.90
17252;DHT22;8742;51.716;8.790;2022-11-15T06:28:59;10.90;99.90
17252;DHT22;8742;51.716;8.790;2022-11-15T06:31:25;10.90;99.90
17252;DHT22;8742;51.716;8.790;2022-11-15T06:33:53;10.90;99.90
17252;DHT22;8742;51.716;8.790;2022-11-15T06:36:20;10.80;99.90
17252;DHT22;8742;51.716;8.790;2022-11-15T06:38:47;10.80;99.90
17252;DHT22;8742;51.716;8.790;2022-11-15T06:41:14;10.70;99.90
17252;DHT22;8742;51.716;8.790;2022-11-15T06:43:42;10.70;99.90
17252;DHT22;8742;51.716;8.790;2022-11-15T06:46:09;10.60;99.90
17252;DHT22;8742;51.716;8.790;2022-11-15T06:48:36;10.60;99.90
17252;DHT22;8742;51.716;8.790;2022-11-15T06:51:04;10.60;99.90
17252;DHT22;8742;51.716;8.790;2022-11-15T06:53:32;10.60;99.90
17252;DHT22;8742;51.716;8.790;2022-11-15T06:55:59;10.70;99.90
17252;DHT22;8742;51.716;8.790;2022-11-15T06:58:27;10.70;99.90
17252;DHT22;8742;51.716;8.790;2022-11-15T07:00:57;10.60;99.90
17252;DHT22;8742;51.716;8.790;2022-11-15T07:03:24;10.60;99.90
17252;DHT22;8742;51.716;8.790;2022-11-15T07:05:52;10.60;99.90
17252;DHT22;8742;51.716;8.790;2022-11-15T07:08:21;10.60;99.90
17252;DHT22;8742;51.716;8.790;2022-11-15T07:10:48;10.60;99.90
17252;DHT22;8742;51.716;8.790;2022-11-15T07:13:15;10.60;99.90
17252;DHT22;8742;51.716;8.790;2022-11-15T07:15:42;10.50;99.90
17252;DHT22;8742;51.716;8.790;2022-11-15T07:18:09;10.50;99.90
17252;DHT22;8742;51.716;8.790;2022-11-15T07:20:36;10.50;99.90
17252;DHT22;8742;51.716;8.790;2022-11-15T07:23:03;10.50;99.90
17252;DHT22;8742;51.716;8.790;2022-11-15T07:25:32;10.60;99.90
17252;DHT22;8742;51.716;8.790;2022-11-15T07:28:00;10.60;99.90
17252;DHT22;8742;51.716;8.790;2022-11-15T07:30:27;10.70;99.90
17252;DHT22;8742;51.716;8.790;2022-11-15T07:32:54;10.80;99.90
17252;DHT22;8742;51.716;8.790;2022-11-15T07:35:22;10.90;99.90
17252;DHT22;8742;51.716;8.790;2022-11-15T07:37:56;11.00;99.90
17252;DHT22;8742;51.716;8.790;2022-11-15T07:40:24;11.10;99.90
17252;DHT22;8742;51.716;8.790;2022-11-15T07:42:52;11.30;99.90
17252;DHT22;8742;51.716;8.790;2022-11-15T07:45:19;11.50;99.90
17252;DHT22;8742;51.716;8.790;2022-11-15T07:47:46;11.70;99.90
17252;DHT22;8742;51.716;8.790;2022-11-15T07:50:13;11.90;99.90
17252;DHT22;8742;51.716;8.790;2022-11-15T07:52:40;12.00;99.90
17252;DHT22;8742;51.716;8.790;2022-11-15T07:55:08;12.10;99.90
17252;DHT22;8742;51.716;8.790;2022-11-15T07:57:35;12.20;99.90
17252;DHT22;8742;51.716;8.790;2022-11-15T08:00:04;12.30;99.90
17252;DHT22;8742;51.716;8.790;2022-11-15T08:02:31;12.40;99.90
17252;DHT22;8742;51.716;8.790;2022-11-15T08:04:57;12.50;99.90
17252;DHT22;8742;51.716;8.790;2022-11-15T08:07:24;12.50;99.90
17252;DHT22;8742;51.716;8.790;2022-11-15T08:09:51;12.60;99.90
17252;DHT22;8742;51.716;8.790;2022-11-15T08:12:18;12.60;99.90
17252;DHT22;8742;51.716;8.790;2022-11-15T08:14:45;12.70;99.90
17252;DHT22;8742;51.716;8.790;2022-11-15T08:17:13;12.80;99.90
17252;DHT22;8742;51.716;8.790;2022-11-15T08:19:40;12.80;99.90
17252;DHT22;8742;51.716;8.790;2022-11-15T08:22:07;12.90;99.90
17252;DHT22;8742;51.716;8.790;2022-11-15T08:24:34;12.90;99.90
17252;DHT22;8742;51.716;8.790;2022-11-15T08:27:01;12.90;99.90
17252;DHT22;8742;51.716;8.790;2022-11-15T08:29:27;13.20;99.90
17252;DHT22;8742;51.716;8.790;2022-11-15T08:31:54;13.60;99.90
17252;DHT22;8742;51.716;8.790;2022-11-15T08:34:23;14.20;99.90
17252;DHT22;8742;51.716;8.790;2022-11-15T08:36:50;14.80;99.90
17252;DHT22;8742;51.716;8.790;2022-11-15T08:39:17;15.40;99.90
17252;DHT22;8742;51.716;8.790;2022-11-15T08:41:44;16.00;99.90
17252;DHT22;8742;51.716;8.790;2022-11-15T08:44:11;16.50;99.90
17252;DHT22;8742;51.716;8.790;2022-11-15T08:46:38;16.90;99.90
17252;DHT22;8742;51.716;8.790;2022-11-15T08:49:04;17.30;99.90
17252;DHT22;8742;51.716;8.790;2022-11-15T08:51:33;17.20;99.90
17252;DHT22;8742;51.716;8.790;2022-11-15T08:53:59;17.40;99.90
17252;DHT22;8742;51.716;8.790;2022-11-15T08:56:26;17.60;99.90
17252;DHT22;8742;51.716;8.790;2022-11-15T08:58:53;17.40;99.90
17252;DHT22;8742;51.716;8.790;2022-11-15T09:01:20;16.90;99.90
17252;DHT22;8742;51.716;8.790;2022-11-15T09:03:47;16.50;99.90
17252;DHT22;8742;51.716;8.790;2022-11-15T09:06:14;16.10;99.90
17252;DHT22;8742;51.716;8.790;2022-11-15T09:08:42;15.90;99.90
17252;DHT22;8742;51.716;8.790;2022-11-15T09:11:10;15.70;99.90
17252;DHT22;8742;51.716;8.790;2022-11-15T09:13:37;16.00;99.90
17252;DHT22;8742;51.716;8.790;2022-11-15T09:16:05;16.40;99.90
17252;DHT22;8742;51.716;8.790;2022-11-15T09:18:32;17.10;99.90
17252;DHT22;8742;51.716;8.790;2022-11-15T09:21:00;17.80;99.90
17252;DHT22;8742;51.716;8.790;2022-11-15T09:23:28;18.40;99.90
17252;DHT22;8742;51.716;8.790;2022-11-15T09:26:00;18.90;99.90
17252;DHT22;8742;51.716;8.790;2022-11-15T09:28:28;19.20;99.90
17252;DHT22;8742;51.716;8.790;2022-11-15T09:30:56;19.70;99.90
17252;DHT22;8742;51.716;8.790;2022-11-15T09:33:24;20.10;99.90
17252;DHT22;8742;51.716;8.790;2022-11-15T09:35:51;20.30;99.90
17252;DHT22;8742;51.716;8.790;2022-11-15T09:38:18;20.30;99.90
17252;DHT22;8742;51.716;8.790;2022-11-15T09:40:48;20.20;99.90
17252;DHT22;8742;51.716;8.790;2022-11-15T09:43:42;19.90;99.90
17252;DHT22;8742;51.716;8.790;2022-11-15T09:46:16;19.40;99.90
17252;DHT22;8742;51.716;8.790;2022-11-15T09:48:49;19.50;99.90
17252;DHT22;8742;51.716;8.790;2022-11-15T09:51:23;20.00;99.90
17252;DHT22;8742;51.716;8.790;2022-11-15T09:53:57;20.30;99.90
17252;DHT22;8742;51.716;8.790;2022-11-15T09:56:28;20.60;99.90
17252;DHT22;8742;51.716;8.790;2022-11-15T09:59:03;20.60;99.90
17252;DHT22;8742;51.716;8.790;2022-11-15T10:01:39;20.70;99.90
17252;DHT22;8742;51.716;8.790;2022-11-15T10:04:07;20.50;99.90
17252;DHT22;8742;51.716;8.790;2022-11-15T10:06:40;20.20;99.90
17252;DHT22;8742;51.716;8.790;2022-11-15T10:09:14;20.00;99.90
17252;DHT22;8742;51.716;8.790;2022-11-15T10:11:42;19.60;99.90
17252;DHT22;8742;51.716;8.790;2022-11-15T10:14:13;19.30;99.90
17252;DHT22;8742;51.716;8.790;2022-11-15T10:17:06;19.50;99.90
17252;DHT22;8742;51.716;8.790;2022-11-15T10:19:41;20.00;99.90
17252;DHT22;8742;51.716;8.790;2022-11-15T10:22:27;20.30;99.90
17252;DHT22;8742;51.716;8.790;2022-11-15T10:25:11;20.80;99.90
17252;DHT22;8742;51.716;8.790;2022-11-15T10:27:40;21.10;99.90
17252;DHT22;8742;51.716;8.790;2022-11-15T10:30:14;20.60;99.90
17252;DHT22;8742;51.716;8.790;2022-11-15T10:32:43;20.00;99.90
17252;DHT22;8742;51.716;8.790;2022-11-15T10:35:23;19.60;99.90
17252;DHT22;8742;51.716;8.790;2022-11-15T10:37:50;19.80;99.90
17252;DHT22;8742;51.716;8.790;2022-11-15T10:40:20;19.70;99.90
17252;DHT22;8742;51.716;8.790;2022-11-15T10:42:47;19.30;99.90
17252;DHT22;8742;51.716;8.790;2022-11-15T10:45:27;19.00;99.90
17252;DHT22;8742;51.716;8.790;2022-11-15T10:48:23;19.20;99.90
17252;DHT22;8742;51.716;8.790;2022-11-15T10:50:51;19.30;99.90
17252;DHT22;8742;51.716;8.790;2022-11-15T10:53:24;19.10;99.90
17252;DHT22;8742;51.716;8.790;2022-11-15T10:55:54;18.60;99.90
17252;DHT22;8742;51.716;8.790;2022-11-15T10:58:32;18.20;99.90
17252;DHT22;8742;51.716;8.790;2022-11-15T11:01:15;17.80;99.90
17252;DHT22;8742;51.716;8.790;2022-11-15T11:03:45;17.40;99.90
17252;DHT22;8742;51.716;8.790;2022-11-15T11:06:24;17.20;99.90
17252;DHT22;8742;51.716;8.790;2022-11-15T11:08:57;17.10;99.90
17252;DHT22;8742;51.716;8.790;2022-11-15T11:11:24;16.90;99.90
17252;DHT22;8742;51.716;8.790;2022-11-15T11:13:51;16.80;99.90
17252;DHT22;8742;51.716;8.790;2022-11-15T11:16:37;16.60;99.90
17252;DHT22;8742;51.716;8.790;2022-11-15T11:19:23;16.60;99.90
17252;DHT22;8742;51.716;8.790;2022-11-15T11:22:00;16.90;99.90
17252;DHT22;8742;51.716;8.790;2022-11-15T11:24:34;17.40;99.90
17252;DHT22;8742;51.716;8.790;2022-11-15T11:27:13;17.80;99.90
17252;DHT22;8742;51.716;8.790;2022-11-15T11:29:52;18.00;99.90
17252;DHT22;8742;51.716;8.790;2022-11-15T11:32:40;17.80;99.90
17252;DHT22;8742;51.716;8.790;2022-11-15T11:35:17;17.70;99.90
17252;DHT22;8742;51.716;8.790;2022-11-15T11:37:49;17.50;99.90
17252;DHT22;8742;51.716;8.790;2022-11-15T11:40:25;17.30;99.90
17252;DHT22;8742;51.716;8.790;2022-11-15T11:42:58;17.10;99.90
17252;DHT22;8742;51.716;8.790;2022-11-15T11:45:46;17.00;99.90
17252;DHT22;8742;51.716;8.790;2022-11-15T11:48:25;16.80;99.90
17252;DHT22;8742;51.716;8.790;2022-11-15T11:51:03;16.70;99.90
17252;DHT22;8742;51.716;8.790;2022-11-15T11:53:37;16.70;99.90
17252;DHT22;8742;51.716;8.790;2022-11-15T11:56:14;17.10;99.90
17252;DHT22;8742;51.716;8.790;2022-11-15T11:58:44;17.40;99.90
17252;DHT22;8742;51.716;8.790;2022-11-15T12:01:23;18.40;99.90
17252;DHT22;8742;51.716;8.790;2022-11-15T12:03:55;19.50;99.90
17252;DHT22;8742;51.716;8.790;2022-11-15T12:06:31;20.50;99.90
17252;DHT22;8742;51.716;8.790;2022-11-15T12:09:03;21.20;99.90
17252;DHT22;8742;51.716;8.790;2022-11-15T12:11:36;21.60;99.90
17252;DHT22;8742;51.716;8.790;2022-11-15T12:14:12;21.90;99.90
17252;DHT22;8742;51.716;8.790;2022-11-15T12:16:41;22.20;99.90
17252;DHT22;8742;51.716;8.790;2022-11-15T12:19:08;22.80;99.90
17252;DHT22;8742;51.716;8.790;2022-11-15T12:21:43;23.10;99.90
17252;DHT22;8742;51.716;8.790;2022-11-15T12:24:14;22.70;99.90
17252;DHT22;8742;51.716;8.790;2022-11-15T12:26:47;22.40;99.90
17252;DHT22;8742;51.716;8.790;2022-11-15T12:29:18;22.60;99.90
17252;DHT22;8742;51.716;8.790;2022-11-15T12:31:49;22.80;99.90
17252;DHT22;8742;51.716;8.790;2022-11-15T12:34:38;23.10;99.90
17252;DHT22;8742;51.716;8.790;2022-11-15T12:40:37;22.70;99.90
17252;DHT22;8742;51.716;8.790;2022-11-15T12:46:02;21.10;99.90
17252;DHT22;8742;51.716;8.790;2022-11-15T12:48:57;20.50;99.90
17252;DHT22;8742;51.716;8.790;2022-11-15T12:55:00;19.50;99.90
17252;DHT22;8742;51.716;8.790;2022-11-15T12:57:34;19.10;99.90
17252;DHT22;8742;51.716;8.790;2022-11-15T13:02:47;18.60;99.90
17252;DHT22;8742;51.716;8.790;2022-11-15T13:08:39;18.20;99.90
17252;DHT22;8742;51.716;8.790;2022-11-15T13:17:31;17.60;99.90
17252;DHT22;8742;51.716;8.790;2022-11-15T13:20:18;17.30;99.90
17252;DHT22;8742;51.716;8.790;2022-11-15T13:22:46;17.20;99.90
17252;DHT22;8742;51.716;8.790;2022-11-15T13:25:38;17.00;99.90
17252;DHT22;8742;51.716;8.790;2022-11-15T13:28:17;16.90;99.90
17252;DHT22;8742;51.716;8.790;2022-11-15T13:30:50;16.80;99.90
17252;DHT22;8742;51.716;8.790;2022-11-15T13:33:20;16.60;99.90
17252;DHT22;8742;51.716;8.790;2022-11-15T13:35:50;16.50;99.90
17252;DHT22;8742;51.716;8.790;2022-11-15T13:38:25;16.40;99.90
17252;DHT22;8742;51.716;8.790;2022-11-15T13:40:53;16.40;99.90
17252;DHT22;8742;51.716;8.790;2022-11-15T13:43:28;16.30;99.90
17252;DHT22;8742;51.716;8.790;2022-11-15T13:46:11;16.40;99.90
17252;DHT22;8742;51.716;8.790;2022-11-15T13:48:40;16.30;99.90
17252;DHT22;8742;51.716;8.790;2022-11-15T13:51:17;16.20;99.90
17252;DHT22;8742;51.716;8.790;2022-11-15T13:53:48;16.30;99.90
17252;DHT22;8742;51.716;8.790;2022-11-15T13:56:17;16.30;99.90
17252;DHT22;8742;51.716;8.790;2022-11-15T13:58:45;16.30;99.90
17252;DHT22;8742;51.716;8.790;2022-11-15T14:01:16;16.40;99.90
17252;DHT22;8742;51.716;8.790;2022-11-15T14:03:52;16.40;99.90
17252;DHT22;8742;51.716;8.790;2022-11-15T14:06:21;16.50;99.90
17252;DHT22;8742;51.716;8.790;2022-11-15T14:09:24;16.60;99.90
17252;DHT22;8742;51.716;8.790;2022-11-15T14:11:54;16.60;99.90
17252;DHT22;8742;51.716;8.790;2022-11-15T14:14:23;16.60;99.90
17252;DHT22;8742;51.716;8.790;2022-11-15T14:16:51;16.50;99.90
17252;DHT22;8742;51.716;8.790;2022-11-15T14:19:39;16.50;99.90
17252;DHT22;8742;51.716;8.790;2022-11-15T14:22:20;16.40;99.90
17252;DHT22;8742;51.716;8.790;2022-11-15T14:25:14;16.30;99.90
17252;DHT22;8742;51.716;8.790;2022-11-15T14:27:42;16.30;99.90
17252;DHT22;8742;51.716;8.790;2022-11-15T14:30:13;16.30;99.90
17252;DHT22;8742;51.716;8.790;2022-11-15T14:32:43;16.30;99.90
17252;DHT22;8742;51.716;8.790;2022-11-15T14:35:15;16.20;99.90
17252;DHT22;8742;51.716;8.790;2022-11-15T14:37:42;16.20;99.90
17252;DHT22;8742;51.716;8.790;2022-11-15T14:40:12;16.20;99.90
17252;DHT22;8742;51.716;8.790;2022-11-15T14:42:39;16.20;99.90
17252;DHT22;8742;51.716;8.790;2022-11-15T14:45:10;16.10;99.90
17252;DHT22;8742;51.716;8.790;2022-11-15T14:47:38;16.00;99.90
17252;DHT22;8742;51.716;8.790;2022-11-15T14:50:05;15.90;99.90
17252;DHT22;8742;51.716;8.790;2022-11-15T14:52:33;15.80;99.90
17252;DHT22;8742;51.716;8.790;2022-11-15T14:55:02;15.70;99.90
17252;DHT22;8742;51.716;8.790;2022-11-15T14:57:29;15.60;99.90
17252;DHT22;8742;51.716;8.790;2022-11-15T14:59:56;15.60;99.90
17252;DHT22;8742;51.716;8.790;2022-11-15T15:02:25;15.50;99.90
17252;DHT22;8742;51.716;8.790;2022-11-15T15:04:52;15.40;99.90
17252;DHT22;8742;51.716;8.790;2022-11-15T15:07:19;15.30;99.90
17252;DHT22;8742;51.716;8.790;2022-11-15T15:09:48;15.20;99.90
17252;DHT22;8742;51.716;8.790;2022-11-15T15:12:16;15.20;99.90
17252;DHT22;8742;51.716;8.790;2022-11-15T15:14:44;15.10;99.90
17252;DHT22;8742;51.716;8.790;2022-11-15T15:17:11;15.00;99.90
17252;DHT22;8742;51.716;8.790;2022-11-15T15:19:38;14.90;99.90
17252;DHT22;8742;51.716;8.790;2022-11-15T15:22:05;14.80;99.90
17252;DHT22;8742;51.716;8.790;2022-11-15T15:24:32;14.80;99.90
17252;DHT22;8742;51.716;8.790;2022-11-15T15:27:00;14.70;99.90
17252;DHT22;8742;51.716;8.790;2022-11-15T15:29:27;14.60;99.90
17252;DHT22;8742;51.716;8.790;2022-11-15T15:31:54;14.60;99.90
17252;DHT22;8742;51.716;8.790;2022-11-15T15:34:21;14.50;99.90
17252;DHT22;8742;51.716;8.790;2022-11-15T15:36:48;14.40;99.90
17252;DHT22;8742;51.716;8.790;2022-11-15T15:39:15;14.40;99.90
17252;DHT22;8742;51.716;8.790;2022-11-15T15:41:41;14.30;99.90
17252;DHT22;8742;51.716;8.790;2022-11-15T15:44:10;14.30;99.90
17252;DHT22;8742;51.716;8.790;2022-11-15T15:46:36;14.20;99.90
17252;DHT22;8742;51.716;8.790;2022-11-15T15:49:03;14.20;99.90
17252;DHT22;8742;51.716;8.790;2022-11-15T15:51:30;14.20;99.90
17252;DHT22;8742;51.716;8.790;2022-11-15T15:53:57;14.10;99.90
17252;DHT22;8742;51.716;8.790;2022-11-15T15:56:24;14.10;99.90
17252;DHT22;8742;51.716;8.790;2022-11-15T15:58:51;14.10;99.90
17252;DHT22;8742;51.716;8.790;2022-11-15T16:01:19;14.10;99.90
17252;DHT22;8742;51.716;8.790;2022-11-15T16:03:46;14.10;99.90
17252;DHT22;8742;51.716;8.790;2022-11-15T16:06:34;14.00;99.90
17252;DHT22;8742;51.716;8.790;2022-11-15T16:09:01;14.00;99.90
17252;DHT22;8742;51.716;8.790;2022-11-15T16:11:28;14.00;99.90
17252;DHT22;8742;51.716;8.790;2022-11-15T16:13:54;14.00;99.90
17252;DHT22;8742;51.716;8.790;2022-11-15T16:16:23;14.00;99.90
17252;DHT22;8742;51.716;8.790;2022-11-15T16:18:49;14.00;99.90
17252;DHT22;8742;51.716;8.790;2022-11-15T16:21:16;13.90;99.90
17252;DHT22;8742;51.716;8.790;2022-11-15T16:23:43;13.90;99.90
17252;DHT22;8742;51.716;8.790;2022-11-15T16:26:17;13.90;99.90
17252;DHT22;8742;51.716;8.790;2022-11-15T16:28:46;13.90;99.90
17252;DHT22;8742;51.716;8.790;2022-11-15T16:31:13;13.90;99.90
17252;DHT22;8742;51.716;8.790;2022-11-15T16:33:41;13.80;99.90
17252;DHT22;8742;51.716;8.790;2022-11-15T16:36:17;13.80;99.90
17252;DHT22;8742;51.716;8.790;2022-11-15T16:38:44;13.80;99.90
17252;DHT22;8742;51.716;8.790;2022-11-15T16:41:11;13.80;99.90
17252;DHT22;8742;51.716;8.790;2022-11-15T16:43:38;13.70;99.90
17252;DHT22;8742;51.716;8.790;2022-11-15T16:46:11;13.70;99.90
17252;DHT22;8742;51.716;8.790;2022-11-15T16:48:38;13.70;99.90
17252;DHT22;8742;51.716;8.790;2022-11-15T16:51:06;13.70;99.90